createdAt,value
2023-09-23T00:12:45.903Z,93673.56
2023-09-23T00:27:47.569Z,93679.25
2023-09-23T00:42:49.342Z,93699.28
2023-09-23T00:57:54.752Z,93803.03
2023-09-23T01:12:57.761Z,93756.59
2023-09-23T01:27:59.429Z,93733.06
2023-09-23T01:43:01.179Z,93779.03
2023-09-23T01:58:03.094Z,93642.47
2023-09-23T02:13:04.909Z,93731.47
2023-09-23T02:28:06.958Z,93761.50
2023-09-23T02:43:08.918Z,93686.25
2023-09-23T02:58:11.637Z,93702.06
2023-09-23T03:13:13.685Z,93756.41
2023-09-23T03:28:18.815Z,93845.94
2023-09-23T03:43:20.789Z,93810.44
2023-09-23T03:58:22.576Z,93710.69
2023-09-23T04:13:24.219Z,93708.88
2023-09-23T04:28:25.940Z,93912.41
2023-09-23T04:43:30.057Z,93751.47
2023-09-23T04:58:32.447Z,93826.75
2023-09-23T05:13:34.211Z,93915.00
2023-09-23T05:28:35.853Z,93671.28
2023-09-23T05:43:37.493Z,93884.38
2023-09-23T05:58:39.204Z,93898.25
2023-09-23T06:13:41.032Z,93811.00
2023-09-23T06:28:42.684Z,93916.00
2023-09-23T06:43:44.855Z,93939.34
2023-09-23T06:58:46.763Z,93877.75
2023-09-23T07:13:48.589Z,93781.53
2023-09-23T07:28:53.179Z,93936.00
2023-09-23T07:43:55.168Z,93952.31
2023-09-23T07:58:57.355Z,93961.78
2023-09-23T08:13:59.607Z,93927.03
2023-09-23T08:29:01.340Z,93921.34
2023-09-23T08:44:06.811Z,93941.72
2023-09-23T08:59:10.147Z,93899.19
2023-09-23T09:14:12.064Z,93928.72
2023-09-23T09:29:15.188Z,93790.22
2023-09-23T09:44:17.530Z,93909.47
2023-09-23T09:59:31.536Z,93894.47
2023-09-23T10:14:33.760Z,93838.72
2023-09-23T10:29:51.282Z,93768.34
2023-09-23T10:44:59.271Z,93836.66
2023-09-23T11:00:01.237Z,93736.84
2023-09-23T11:15:03.865Z,93782.78
2023-09-23T11:30:06.304Z,93779.31
2023-09-23T11:45:09.496Z,93717.06
2023-09-23T12:00:12.179Z,93696.66
2023-09-23T12:15:13.854Z,93703.28
2023-09-23T12:30:18.773Z,93697.88
2023-09-23T12:45:20.529Z,93669.31
2023-09-23T13:00:22.872Z,93692.00
2023-09-23T13:15:24.760Z,93685.16
2023-09-23T13:30:26.607Z,93650.50
2023-09-23T13:45:28.254Z,93657.47
2023-09-23T14:00:30.333Z,93633.16
2023-09-23T14:15:32.025Z,93647.06
2023-09-23T14:30:33.732Z,93549.09
2023-09-23T14:45:35.697Z,93624.25
2023-09-23T15:00:37.391Z,93552.84
2023-09-23T15:15:40.278Z,93584.38
2023-09-23T15:30:43.537Z,93568.13
2023-09-23T15:45:45.746Z,93599.69
2023-09-23T16:00:47.994Z,93625.53
2023-09-23T16:15:49.995Z,93595.28
2023-09-23T16:30:52.024Z,93629.41
2023-09-23T16:45:55.053Z,93611.81
2023-09-23T17:00:56.950Z,93628.34
2023-09-23T17:15:58.684Z,93638.50
2023-09-23T17:31:00.394Z,93601.81
2023-09-23T17:46:05.226Z,93657.59
2023-09-23T18:01:07.131Z,93679.66
2023-09-23T18:16:08.919Z,93664.44
2023-09-23T18:31:10.876Z,93665.56
2023-09-23T18:46:13.845Z,93647.25
2023-09-23T19:01:16.254Z,93686.44
2023-09-23T19:16:18.177Z,93661.47
2023-09-23T19:31:20.414Z,93661.53
2023-09-23T19:46:23.259Z,93590.41
2023-09-23T20:01:25.364Z,93623.38
2023-09-23T20:16:27.247Z,93567.69
2023-09-23T20:31:29.118Z,93667.50
2023-09-23T20:46:32.280Z,93659.47
2023-09-23T21:01:35.314Z,93621.03
2023-09-23T21:16:37.412Z,93642.91
2023-09-23T21:31:39.768Z,93572.72
2023-09-23T21:46:42.377Z,93622.53
2023-09-23T22:01:44.741Z,93564.69
2023-09-23T22:16:46.769Z,93608.69
2023-09-23T22:31:48.921Z,93569.63
2023-09-23T22:46:50.801Z,93573.31
2023-09-23T23:01:52.876Z,93459.28
2023-09-23T23:16:54.582Z,93538.50
2023-09-23T23:31:56.259Z,93535.75
2023-09-23T23:46:58.026Z,93556.34
